Matthew Mcallister — WDG8294 — position and weather

sailwx.info

Track history (hours):
 
Tides and Currents Weather Stations Pressure Air Temp Water Temp Dewpoint Dewpoint Depression Visibility Wind Speed Wind Dir Waves Ship Positions

Matthew Mcallister

Owner: McAllister Towing &Transportation Co. Inc., Staten Island, NY. More information available from US FCC via Universal Licensing System and Coast Guard Vessel Documentation Center.

Last reported at 2018-Jun-22 12:57 UTC. Time now 2018-Jun-23 17:29 UTC.
Position N 41°48' W 071°24'.

Length 30 m; draft 5 m.

Type: Tug. MMSI: 367381230.

Date/timePositionNaut miles runAvg speedWind from/ knotsBaromVisibWave heightAir tempDewpointWater temp
2018-Jun-22 12:57N 41°48' W 071°24'  
2018-Jun-16 14:23N 41°47' W 071°23'0 0.1
2018-Jun-16 12:43N 41°47' W 071°23'0 0.2
2018-Jun-16 11:34N 41°48' W 071°23'0 3.5
2018-Jun-16 11:30N 41°47' W 071°23'1 0.1
2018-Jun-16 01:32N 41°47' W 071°22'0 0.0
2018-Jun-16 01:29N 41°47' W 071°22'0 0.0
2018-Jun-16 01:00N 41°47' W 071°22'1 1.6
2018-Jun-16 00:30N 41°46' W 071°23'0 0.0
2018-Jun-15 00:47N 41°46' W 071°22'3 9.4
2018-Jun-15 00:30N 41°44' W 071°21'5 9.4
2018-Jun-14 23:58N 41°39' W 071°18'5 5.2
2018-Jun-14 23:03N 41°36' W 071°24'1 5.8
2018-Jun-14 22:58N 41°37' W 071°24'0 0.5
2018-Jun-14 22:30N 41°37' W 071°24'0 0.0
2018-Jun-14 15:03N 41°37' W 071°24'0 0.3
2018-Jun-14 14:59N 41°37' W 071°24'1 0.1
2018-Jun-14 09:45N 41°36' W 071°24'2 3.3
2018-Jun-14 09:17N 41°35' W 071°23'5 7.1
2018-Jun-14 08:38N 41°38' W 071°18'210.2
2018-Jun-14 08:27N 41°40' W 071°19'4 9.3
2018-Jun-14 08:00N 41°43' W 071°21'4 0.4
2018-Jun-13 21:41N 41°48' W 071°23'0 0.0
2018-Jun-12 13:29N 41°47' W 071°23'0 0.8
2018-Jun-12 13:00N 41°47' W 071°22'  
Track history (hours):
 
Tides and Currents Weather Stations Pressure Air Temp Water Temp Dewpoint Dewpoint Depression Visibility Wind Speed Wind Dir Waves Ship Positions

Matthew Mcallister

Owner: McAllister Towing &Transportation Co. Inc., Staten Island, NY. More information available from US FCC via Universal Licensing System and Coast Guard Vessel Documentation Center.

Last reported at 2018-Jun-22 12:57 UTC. Time now 2018-Jun-23 17:29 UTC.
Position N 41°48' W 071°24'.

Length 30 m; draft 5 m.

Type: Tug. MMSI: 367381230.

Date/timePositionNaut miles runAvg speedWind from/ knotsBaromVisibWave heightAir tempDewpointWater temp
2018-Jun-22 12:57N 41°48' W 071°24'  
2018-Jun-16 14:23N 41°47' W 071°23'0 0.1
2018-Jun-16 12:43N 41°47' W 071°23'0 0.2
2018-Jun-16 11:34N 41°48' W 071°23'0 3.5
2018-Jun-16 11:30N 41°47' W 071°23'1 0.1
2018-Jun-16 01:32N 41°47' W 071°22'0 0.0
2018-Jun-16 01:29N 41°47' W 071°22'0 0.0
2018-Jun-16 01:00N 41°47' W 071°22'1 1.6
2018-Jun-16 00:30N 41°46' W 071°23'0 0.0
2018-Jun-15 00:47N 41°46' W 071°22'3 9.4
2018-Jun-15 00:30N 41°44' W 071°21'5 9.4
2018-Jun-14 23:58N 41°39' W 071°18'5 5.2
2018-Jun-14 23:03N 41°36' W 071°24'1 5.8
2018-Jun-14 22:58N 41°37' W 071°24'0 0.5
2018-Jun-14 22:30N 41°37' W 071°24'0 0.0
2018-Jun-14 15:03N 41°37' W 071°24'0 0.3
2018-Jun-14 14:59N 41°37' W 071°24'1 0.1
2018-Jun-14 09:45N 41°36' W 071°24'2 3.3
2018-Jun-14 09:17N 41°35' W 071°23'5 7.1
2018-Jun-14 08:38N 41°38' W 071°18'210.2
2018-Jun-14 08:27N 41°40' W 071°19'4 9.3
2018-Jun-14 08:00N 41°43' W 071°21'4 0.4
2018-Jun-13 21:41N 41°48' W 071°23'0 0.0
2018-Jun-12 13:29N 41°47' W 071°23'0 0.8
2018-Jun-12 13:00N 41°47' W 071°22'  

Dump ship's entire track history